sensor_id;sensor_type;location;lat;lon;timestamp;P1;durP1;ratioP1;P2;durP2;ratioP2
18228;SDS011;9239;50.932;3.142;2022-10-18T00:00:07;17.08;;;15.48;;
18228;SDS011;9239;50.932;3.142;2022-10-18T00:02:35;16.52;;;15.05;;
18228;SDS011;9239;50.932;3.142;2022-10-18T00:05:01;16.48;;;15.10;;
18228;SDS011;9239;50.932;3.142;2022-10-18T00:07:29;16.92;;;15.43;;
18228;SDS011;9239;50.932;3.142;2022-10-18T00:09:56;17.05;;;15.57;;
18228;SDS011;9239;50.932;3.142;2022-10-18T00:12:23;17.83;;;16.25;;
18228;SDS011;9239;50.932;3.142;2022-10-18T00:14:49;17.52;;;15.82;;
18228;SDS011;9239;50.932;3.142;2022-10-18T00:17:18;19.35;;;17.67;;
18228;SDS011;9239;50.932;3.142;2022-10-18T00:19:45;19.30;;;17.48;;
18228;SDS011;9239;50.932;3.142;2022-10-18T00:22:12;19.27;;;17.48;;
18228;SDS011;9239;50.932;3.142;2022-10-18T00:24:39;19.35;;;17.42;;
18228;SDS011;9239;50.932;3.142;2022-10-18T00:27:06;16.48;;;15.18;;
18228;SDS011;9239;50.932;3.142;2022-10-18T00:29:33;18.40;;;16.58;;
18228;SDS011;9239;50.932;3.142;2022-10-18T00:32:00;16.92;;;15.40;;
18228;SDS011;9239;50.932;3.142;2022-10-18T00:34:28;19.08;;;17.25;;
18228;SDS011;9239;50.932;3.142;2022-10-18T00:36:55;18.65;;;16.98;;
18228;SDS011;9239;50.932;3.142;2022-10-18T00:39:22;19.83;;;18.02;;
18228;SDS011;9239;50.932;3.142;2022-10-18T00:41:49;19.98;;;17.95;;
18228;SDS011;9239;50.932;3.142;2022-10-18T00:47:20;18.92;;;17.20;;
18228;SDS011;9239;50.932;3.142;2022-10-18T00:49:49;18.77;;;17.15;;
18228;SDS011;9239;50.932;3.142;2022-10-18T00:52:20;19.10;;;17.23;;
18228;SDS011;9239;50.932;3.142;2022-10-18T00:54:51;18.10;;;16.48;;
18228;SDS011;9239;50.932;3.142;2022-10-18T00:57:18;18.63;;;16.98;;
18228;SDS011;9239;50.932;3.142;2022-10-18T00:59:46;18.45;;;16.80;;
18228;SDS011;9239;50.932;3.142;2022-10-18T01:02:13;26.95;;;19.60;;
18228;SDS011;9239;50.932;3.142;2022-10-18T01:04:42;19.83;;;18.05;;
18228;SDS011;9239;50.932;3.142;2022-10-18T01:07:13;18.17;;;16.75;;
18228;SDS011;9239;50.932;3.142;2022-10-18T01:09:51;19.17;;;17.38;;
18228;SDS011;9239;50.932;3.142;2022-10-18T01:12:24;18.33;;;16.65;;
18228;SDS011;9239;50.932;3.142;2022-10-18T01:15:03;19.58;;;17.83;;
18228;SDS011;9239;50.932;3.142;2022-10-18T01:17:37;21.83;;;19.67;;
18228;SDS011;9239;50.932;3.142;2022-10-18T01:20:27;21.30;;;19.45;;
18228;SDS011;9239;50.932;3.142;2022-10-18T01:23:21;17.77;;;16.27;;
18228;SDS011;9239;50.932;3.142;2022-10-18T01:25:59;18.10;;;16.40;;
18228;SDS011;9239;50.932;3.142;2022-10-18T01:28:36;19.58;;;17.77;;
18228;SDS011;9239;50.932;3.142;2022-10-18T01:31:14;19.95;;;17.98;;
18228;SDS011;9239;50.932;3.142;2022-10-18T01:33:46;20.67;;;18.88;;
18228;SDS011;9239;50.932;3.142;2022-10-18T01:36:18;20.38;;;18.45;;
18228;SDS011;9239;50.932;3.142;2022-10-18T01:38:47;20.48;;;18.67;;
18228;SDS011;9239;50.932;3.142;2022-10-18T01:41:17;19.90;;;18.27;;
18228;SDS011;9239;50.932;3.142;2022-10-18T01:43:48;22.15;;;20.02;;
18228;SDS011;9239;50.932;3.142;2022-10-18T01:46:20;21.27;;;19.17;;
18228;SDS011;9239;50.932;3.142;2022-10-18T01:48:50;19.88;;;18.00;;
18228;SDS011;9239;50.932;3.142;2022-10-18T01:51:18;17.83;;;16.38;;
18228;SDS011;9239;50.932;3.142;2022-10-18T01:53:48;19.20;;;17.50;;
18228;SDS011;9239;50.932;3.142;2022-10-18T01:56:30;19.98;;;18.10;;
18228;SDS011;9239;50.932;3.142;2022-10-18T01:59:04;20.48;;;18.55;;
18228;SDS011;9239;50.932;3.142;2022-10-18T02:01:53;18.45;;;16.65;;
18228;SDS011;9239;50.932;3.142;2022-10-18T02:04:29;17.85;;;16.02;;
18228;SDS011;9239;50.932;3.142;2022-10-18T02:07:01;16.73;;;15.32;;
18228;SDS011;9239;50.932;3.142;2022-10-18T02:09:32;17.42;;;15.88;;
18228;SDS011;9239;50.932;3.142;2022-10-18T02:12:04;17.05;;;15.55;;
18228;SDS011;9239;50.932;3.142;2022-10-18T02:14:34;18.60;;;16.92;;
18228;SDS011;9239;50.932;3.142;2022-10-18T02:17:04;17.73;;;15.95;;
18228;SDS011;9239;50.932;3.142;2022-10-18T02:19:35;18.77;;;16.98;;
18228;SDS011;9239;50.932;3.142;2022-10-18T02:22:06;18.20;;;16.23;;
18228;SDS011;9239;50.932;3.142;2022-10-18T02:24:37;18.00;;;16.15;;
18228;SDS011;9239;50.932;3.142;2022-10-18T02:27:05;18.02;;;16.30;;
18228;SDS011;9239;50.932;3.142;2022-10-18T02:29:32;16.95;;;15.52;;
18228;SDS011;9239;50.932;3.142;2022-10-18T02:32:02;16.98;;;15.18;;
18228;SDS011;9239;50.932;3.142;2022-10-18T02:34:34;14.18;;;12.88;;
18228;SDS011;9239;50.932;3.142;2022-10-18T02:37:04;16.95;;;15.23;;
18228;SDS011;9239;50.932;3.142;2022-10-18T02:39:33;19.05;;;15.85;;
18228;SDS011;9239;50.932;3.142;2022-10-18T02:42:03;14.60;;;13.30;;
18228;SDS011;9239;50.932;3.142;2022-10-18T02:44:32;16.63;;;15.13;;
18228;SDS011;9239;50.932;3.142;2022-10-18T02:46:59;15.50;;;13.95;;
18228;SDS011;9239;50.932;3.142;2022-10-18T02:49:27;15.00;;;13.70;;
18228;SDS011;9239;50.932;3.142;2022-10-18T02:51:54;16.50;;;14.95;;
18228;SDS011;9239;50.932;3.142;2022-10-18T02:54:22;15.60;;;14.15;;
18228;SDS011;9239;50.932;3.142;2022-10-18T02:56:49;13.10;;;12.00;;
18228;SDS011;9239;50.932;3.142;2022-10-18T02:59:16;16.00;;;13.20;;
18228;SDS011;9239;50.932;3.142;2022-10-18T03:01:43;15.60;;;14.00;;
18228;SDS011;9239;50.932;3.142;2022-10-18T03:04:10;16.48;;;14.07;;
18228;SDS011;9239;50.932;3.142;2022-10-18T03:06:38;15.60;;;14.02;;
18228;SDS011;9239;50.932;3.142;2022-10-18T03:09:05;14.65;;;13.00;;
18228;SDS011;9239;50.932;3.142;2022-10-18T03:11:33;20.02;;;16.77;;
18228;SDS011;9239;50.932;3.142;2022-10-18T03:13:59;15.93;;;14.45;;
18228;SDS011;9239;50.932;3.142;2022-10-18T03:16:26;15.73;;;13.98;;
18228;SDS011;9239;50.932;3.142;2022-10-18T03:18:53;14.52;;;13.15;;
18228;SDS011;9239;50.932;3.142;2022-10-18T03:21:20;15.23;;;13.63;;
18228;SDS011;9239;50.932;3.142;2022-10-18T03:23:48;16.23;;;13.23;;
18228;SDS011;9239;50.932;3.142;2022-10-18T03:26:15;17.92;;;13.77;;
18228;SDS011;9239;50.932;3.142;2022-10-18T03:28:42;14.55;;;13.00;;
18228;SDS011;9239;50.932;3.142;2022-10-18T03:31:09;15.02;;;13.00;;
18228;SDS011;9239;50.932;3.142;2022-10-18T03:33:36;15.73;;;13.20;;
18228;SDS011;9239;50.932;3.142;2022-10-18T03:36:03;17.63;;;13.88;;
18228;SDS011;9239;50.932;3.142;2022-10-18T03:38:30;13.80;;;12.40;;
18228;SDS011;9239;50.932;3.142;2022-10-18T03:40:58;17.13;;;12.88;;
18228;SDS011;9239;50.932;3.142;2022-10-18T03:43:25;17.08;;;12.88;;
18228;SDS011;9239;50.932;3.142;2022-10-18T03:45:52;15.70;;;12.88;;
18228;SDS011;9239;50.932;3.142;2022-10-18T03:48:19;18.75;;;13.85;;
18228;SDS011;9239;50.932;3.142;2022-10-18T03:50:46;16.40;;;13.05;;
18228;SDS011;9239;50.932;3.142;2022-10-18T03:53:13;13.20;;;11.90;;
18228;SDS011;9239;50.932;3.142;2022-10-18T03:55:40;16.40;;;13.05;;
18228;SDS011;9239;50.932;3.142;2022-10-18T03:58:08;19.50;;;13.63;;
18228;SDS011;9239;50.932;3.142;2022-10-18T04:00:35;14.63;;;12.48;;
18228;SDS011;9239;50.932;3.142;2022-10-18T04:03:02;16.63;;;12.68;;
18228;SDS011;9239;50.932;3.142;2022-10-18T04:05:29;16.85;;;13.10;;
18228;SDS011;9239;50.932;3.142;2022-10-18T04:07:56;18.15;;;12.93;;
18228;SDS011;9239;50.932;3.142;2022-10-18T04:10:23;17.08;;;12.30;;
18228;SDS011;9239;50.932;3.142;2022-10-18T04:12:50;19.25;;;13.45;;
18228;SDS011;9239;50.932;3.142;2022-10-18T04:15:19;17.65;;;12.93;;
18228;SDS011;9239;50.932;3.142;2022-10-18T04:17:46;18.05;;;13.07;;
18228;SDS011;9239;50.932;3.142;2022-10-18T04:20:13;18.55;;;13.65;;
18228;SDS011;9239;50.932;3.142;2022-10-18T04:22:40;16.88;;;13.15;;
18228;SDS011;9239;50.932;3.142;2022-10-18T04:25:07;16.70;;;11.80;;
18228;SDS011;9239;50.932;3.142;2022-10-18T04:27:34;16.38;;;11.93;;
18228;SDS011;9239;50.932;3.142;2022-10-18T04:30:01;17.35;;;12.73;;
18228;SDS011;9239;50.932;3.142;2022-10-18T04:32:29;14.18;;;12.02;;
18228;SDS011;9239;50.932;3.142;2022-10-18T04:34:56;14.98;;;12.25;;
18228;SDS011;9239;50.932;3.142;2022-10-18T04:37:23;16.85;;;12.32;;
18228;SDS011;9239;50.932;3.142;2022-10-18T04:39:50;21.33;;;12.60;;
18228;SDS011;9239;50.932;3.142;2022-10-18T04:42:17;15.93;;;12.27;;
18228;SDS011;9239;50.932;3.142;2022-10-18T04:44:44;17.55;;;13.23;;
18228;SDS011;9239;50.932;3.142;2022-10-18T04:47:11;14.77;;;13.07;;
18228;SDS011;9239;50.932;3.142;2022-10-18T04:49:39;14.40;;;11.70;;
18228;SDS011;9239;50.932;3.142;2022-10-18T04:52:06;15.15;;;11.52;;
18228;SDS011;9239;50.932;3.142;2022-10-18T04:54:33;13.35;;;11.95;;
18228;SDS011;9239;50.932;3.142;2022-10-18T04:57:00;13.23;;;11.45;;
18228;SDS011;9239;50.932;3.142;2022-10-18T04:59:27;16.00;;;12.68;;
18228;SDS011;9239;50.932;3.142;2022-10-18T05:01:54;19.52;;;12.82;;
18228;SDS011;9239;50.932;3.142;2022-10-18T05:04:21;15.48;;;11.05;;
18228;SDS011;9239;50.932;3.142;2022-10-18T05:06:49;16.52;;;12.98;;
18228;SDS011;9239;50.932;3.142;2022-10-18T05:09:16;12.68;;;11.27;;
18228;SDS011;9239;50.932;3.142;2022-10-18T05:11:43;12.60;;;11.32;;
18228;SDS011;9239;50.932;3.142;2022-10-18T05:14:10;12.65;;;11.25;;
18228;SDS011;9239;50.932;3.142;2022-10-18T05:16:37;13.82;;;11.40;;
18228;SDS011;9239;50.932;3.142;2022-10-18T05:19:04;13.25;;;11.85;;
18228;SDS011;9239;50.932;3.142;2022-10-18T05:21:30;14.30;;;11.38;;
18228;SDS011;9239;50.932;3.142;2022-10-18T05:23:59;15.50;;;12.23;;
18228;SDS011;9239;50.932;3.142;2022-10-18T05:26:26;17.35;;;12.95;;
18228;SDS011;9239;50.932;3.142;2022-10-18T05:28:53;16.65;;;12.07;;
18228;SDS011;9239;50.932;3.142;2022-10-18T05:31:20;16.90;;;12.80;;
18228;SDS011;9239;50.932;3.142;2022-10-18T05:33:47;20.48;;;13.23;;
18228;SDS011;9239;50.932;3.142;2022-10-18T05:36:15;15.68;;;13.07;;
18228;SDS011;9239;50.932;3.142;2022-10-18T05:38:43;19.25;;;14.27;;
18228;SDS011;9239;50.932;3.142;2022-10-18T05:41:13;18.33;;;12.68;;
18228;SDS011;9239;50.932;3.142;2022-10-18T05:43:41;15.27;;;12.43;;
18228;SDS011;9239;50.932;3.142;2022-10-18T05:46:08;14.90;;;12.95;;
18228;SDS011;9239;50.932;3.142;2022-10-18T05:48:36;16.23;;;13.27;;
18228;SDS011;9239;50.932;3.142;2022-10-18T05:51:03;18.20;;;13.18;;
18228;SDS011;9239;50.932;3.142;2022-10-18T05:53:30;16.15;;;12.93;;
18228;SDS011;9239;50.932;3.142;2022-10-18T05:55:58;16.92;;;13.15;;
18228;SDS011;9239;50.932;3.142;2022-10-18T05:58:27;17.20;;;13.27;;
18228;SDS011;9239;50.932;3.142;2022-10-18T06:00:56;17.58;;;13.43;;
18228;SDS011;9239;50.932;3.142;2022-10-18T06:03:24;16.58;;;12.65;;
18228;SDS011;9239;50.932;3.142;2022-10-18T06:05:52;14.57;;;11.50;;
18228;SDS011;9239;50.932;3.142;2022-10-18T06:08:19;15.45;;;11.88;;
18228;SDS011;9239;50.932;3.142;2022-10-18T06:10:46;15.38;;;12.15;;
18228;SDS011;9239;50.932;3.142;2022-10-18T06:13:13;16.27;;;11.52;;
18228;SDS011;9239;50.932;3.142;2022-10-18T06:15:41;17.23;;;12.45;;
18228;SDS011;9239;50.932;3.142;2022-10-18T06:18:07;20.35;;;11.88;;
18228;SDS011;9239;50.932;3.142;2022-10-18T06:20:34;17.92;;;11.40;;
18228;SDS011;9239;50.932;3.142;2022-10-18T06:23:01;14.57;;;11.15;;
18228;SDS011;9239;50.932;3.142;2022-10-18T06:25:28;18.08;;;12.15;;
18228;SDS011;9239;50.932;3.142;2022-10-18T06:27:55;17.25;;;11.93;;
18228;SDS011;9239;50.932;3.142;2022-10-18T06:30:22;18.20;;;11.48;;
18228;SDS011;9239;50.932;3.142;2022-10-18T06:32:50;15.60;;;11.63;;
18228;SDS011;9239;50.932;3.142;2022-10-18T06:35:17;21.73;;;11.55;;
18228;SDS011;9239;50.932;3.142;2022-10-18T06:37:43;28.92;;;14.30;;
18228;SDS011;9239;50.932;3.142;2022-10-18T06:40:10;17.13;;;12.15;;
18228;SDS011;9239;50.932;3.142;2022-10-18T06:42:37;16.05;;;10.75;;
18228;SDS011;9239;50.932;3.142;2022-10-18T06:45:05;18.90;;;12.07;;
18228;SDS011;9239;50.932;3.142;2022-10-18T06:47:32;16.40;;;11.50;;
18228;SDS011;9239;50.932;3.142;2022-10-18T06:50:01;21.50;;;14.00;;
18228;SDS011;9239;50.932;3.142;2022-10-18T06:52:27;18.95;;;11.18;;
18228;SDS011;9239;50.932;3.142;2022-10-18T06:54:54;19.65;;;11.65;;
18228;SDS011;9239;50.932;3.142;2022-10-18T06:57:21;15.80;;;12.52;;
18228;SDS011;9239;50.932;3.142;2022-10-18T06:59:48;18.65;;;12.40;;
18228;SDS011;9239;50.932;3.142;2022-10-18T07:02:16;18.83;;;12.88;;
18228;SDS011;9239;50.932;3.142;2022-10-18T07:04:43;20.20;;;12.77;;
18228;SDS011;9239;50.932;3.142;2022-10-18T07:07:11;21.30;;;12.48;;
18228;SDS011;9239;50.932;3.142;2022-10-18T07:09:38;16.67;;;12.45;;
18228;SDS011;9239;50.932;3.142;2022-10-18T07:12:05;17.20;;;12.15;;
18228;SDS011;9239;50.932;3.142;2022-10-18T07:14:32;22.58;;;13.02;;
18228;SDS011;9239;50.932;3.142;2022-10-18T07:16:59;16.52;;;11.57;;
18228;SDS011;9239;50.932;3.142;2022-10-18T07:19:25;17.70;;;11.95;;
18228;SDS011;9239;50.932;3.142;2022-10-18T07:21:52;25.00;;;13.93;;
18228;SDS011;9239;50.932;3.142;2022-10-18T07:24:20;21.25;;;13.85;;
18228;SDS011;9239;50.932;3.142;2022-10-18T07:26:47;19.98;;;12.98;;
18228;SDS011;9239;50.932;3.142;2022-10-18T07:29:14;21.63;;;14.30;;
18228;SDS011;9239;50.932;3.142;2022-10-18T07:31:41;20.77;;;13.32;;
18228;SDS011;9239;50.932;3.142;2022-10-18T07:34:09;17.42;;;13.07;;
18228;SDS011;9239;50.932;3.142;2022-10-18T07:36:38;20.70;;;13.80;;
18228;SDS011;9239;50.932;3.142;2022-10-18T07:39:05;19.50;;;13.75;;
18228;SDS011;9239;50.932;3.142;2022-10-18T07:41:34;21.55;;;13.82;;
18228;SDS011;9239;50.932;3.142;2022-10-18T07:44:01;25.23;;;15.20;;
18228;SDS011;9239;50.932;3.142;2022-10-18T07:46:29;22.13;;;15.25;;
18228;SDS011;9239;50.932;3.142;2022-10-18T07:48:55;25.35;;;16.55;;
18228;SDS011;9239;50.932;3.142;2022-10-18T07:51:23;26.00;;;16.88;;
18228;SDS011;9239;50.932;3.142;2022-10-18T07:53:51;29.52;;;16.92;;
18228;SDS011;9239;50.932;3.142;2022-10-18T07:56:19;28.35;;;18.27;;
18228;SDS011;9239;50.932;3.142;2022-10-18T07:58:48;26.02;;;17.92;;
18228;SDS011;9239;50.932;3.142;2022-10-18T08:01:17;24.25;;;16.52;;
18228;SDS011;9239;50.932;3.142;2022-10-18T08:03:44;24.20;;;17.70;;
18228;SDS011;9239;50.932;3.142;2022-10-18T08:06:12;24.60;;;17.52;;
18228;SDS011;9239;50.932;3.142;2022-10-18T08:08:40;27.73;;;18.02;;
18228;SDS011;9239;50.932;3.142;2022-10-18T08:11:08;27.50;;;18.42;;
18228;SDS011;9239;50.932;3.142;2022-10-18T08:13:37;21.00;;;16.58;;
18228;SDS011;9239;50.932;3.142;2022-10-18T08:16:06;21.40;;;16.75;;
18228;SDS011;9239;50.932;3.142;2022-10-18T08:18:35;23.85;;;14.45;;
18228;SDS011;9239;50.932;3.142;2022-10-18T08:21:03;28.98;;;15.10;;
18228;SDS011;9239;50.932;3.142;2022-10-18T08:23:31;19.80;;;14.65;;
18228;SDS011;9239;50.932;3.142;2022-10-18T08:25:59;20.73;;;14.43;;
18228;SDS011;9239;50.932;3.142;2022-10-18T08:28:27;20.75;;;14.27;;
18228;SDS011;9239;50.932;3.142;2022-10-18T08:30:54;19.50;;;12.85;;
18228;SDS011;9239;50.932;3.142;2022-10-18T08:33:22;19.08;;;11.98;;
18228;SDS011;9239;50.932;3.142;2022-10-18T08:35:59;20.73;;;12.90;;
18228;SDS011;9239;50.932;3.142;2022-10-18T08:38:29;20.73;;;13.13;;
18228;SDS011;9239;50.932;3.142;2022-10-18T08:40:58;20.90;;;12.85;;
18228;SDS011;9239;50.932;3.142;2022-10-18T08:43:27;21.83;;;12.00;;
18228;SDS011;9239;50.932;3.142;2022-10-18T08:45:59;19.35;;;11.55;;
18228;SDS011;9239;50.932;3.142;2022-10-18T08:48:31;18.70;;;11.68;;
18228;SDS011;9239;50.932;3.142;2022-10-18T08:51:01;17.00;;;9.50;;
18228;SDS011;9239;50.932;3.142;2022-10-18T08:53:33;19.45;;;10.85;;
18228;SDS011;9239;50.932;3.142;2022-10-18T08:56:05;18.42;;;9.55;;
18228;SDS011;9239;50.932;3.142;2022-10-18T08:58:38;12.45;;;9.27;;
18228;SDS011;9239;50.932;3.142;2022-10-18T09:01:12;11.48;;;9.15;;
18228;SDS011;9239;50.932;3.142;2022-10-18T09:03:57;20.20;;;9.38;;
18228;SDS011;9239;50.932;3.142;2022-10-18T09:06:34;12.90;;;7.93;;
18228;SDS011;9239;50.932;3.142;2022-10-18T09:09:18;14.90;;;7.90;;
18228;SDS011;9239;50.932;3.142;2022-10-18T09:11:53;15.60;;;8.57;;
18228;SDS011;9239;50.932;3.142;2022-10-18T09:14:32;12.40;;;6.80;;
18228;SDS011;9239;50.932;3.142;2022-10-18T09:17:09;17.45;;;7.90;;
18228;SDS011;9239;50.932;3.142;2022-10-18T09:19:55;16.50;;;7.78;;
18228;SDS011;9239;50.932;3.142;2022-10-18T09:22:38;18.35;;;7.93;;
18228;SDS011;9239;50.932;3.142;2022-10-18T09:25:14;17.65;;;8.57;;
18228;SDS011;9239;50.932;3.142;2022-10-18T09:27:46;15.93;;;7.90;;
18228;SDS011;9239;50.932;3.142;2022-10-18T09:30:19;17.10;;;7.70;;
18228;SDS011;9239;50.932;3.142;2022-10-18T09:32:54;12.25;;;6.13;;
18228;SDS011;9239;50.932;3.142;2022-10-18T09:35:27;13.13;;;7.20;;
18228;SDS011;9239;50.932;3.142;2022-10-18T09:38:08;20.70;;;7.47;;
18228;SDS011;9239;50.932;3.142;2022-10-18T09:40:39;13.38;;;5.97;;
18228;SDS011;9239;50.932;3.142;2022-10-18T09:43:15;13.52;;;7.30;;
18228;SDS011;9239;50.932;3.142;2022-10-18T09:45:45;13.35;;;7.03;;
18228;SDS011;9239;50.932;3.142;2022-10-18T09:48:14;15.00;;;6.05;;
18228;SDS011;9239;50.932;3.142;2022-10-18T09:50:47;13.80;;;5.90;;
18228;SDS011;9239;50.932;3.142;2022-10-18T09:53:20;16.65;;;8.02;;
18228;SDS011;9239;50.932;3.142;2022-10-18T09:55:58;14.90;;;6.40;;
18228;SDS011;9239;50.932;3.142;2022-10-18T09:58:30;16.70;;;6.65;;
18228;SDS011;9239;50.932;3.142;2022-10-18T10:01:05;14.07;;;6.50;;
18228;SDS011;9239;50.932;3.142;2022-10-18T10:03:34;15.00;;;6.47;;
18228;SDS011;9239;50.932;3.142;2022-10-18T10:06:02;20.55;;;6.32;;
18228;SDS011;9239;50.932;3.142;2022-10-18T10:08:52;13.27;;;6.00;;
18228;SDS011;9239;50.932;3.142;2022-10-18T10:11:32;11.63;;;6.70;;
18228;SDS011;9239;50.932;3.142;2022-10-18T10:16:48;10.35;;;7.05;;
18228;SDS011;9239;50.932;3.142;2022-10-18T10:19:26;10.82;;;5.32;;
18228;SDS011;9239;50.932;3.142;2022-10-18T10:21:58;9.50;;;5.30;;
18228;SDS011;9239;50.932;3.142;2022-10-18T10:24:32;17.65;;;7.10;;
18228;SDS011;9239;50.932;3.142;2022-10-18T10:27:12;14.98;;;6.78;;
18228;SDS011;9239;50.932;3.142;2022-10-18T10:29:52;13.38;;;7.50;;
18228;SDS011;9239;50.932;3.142;2022-10-18T10:32:24;17.17;;;7.60;;
18228;SDS011;9239;50.932;3.142;2022-10-18T10:34:53;15.75;;;6.70;;
18228;SDS011;9239;50.932;3.142;2022-10-18T10:37:25;14.80;;;7.93;;
18228;SDS011;9239;50.932;3.142;2022-10-18T10:40:12;13.50;;;6.85;;
18228;SDS011;9239;50.932;3.142;2022-10-18T10:42:51;11.68;;;7.20;;
18228;SDS011;9239;50.932;3.142;2022-10-18T10:45:30;24.13;;;8.05;;
18228;SDS011;9239;50.932;3.142;2022-10-18T10:48:04;15.65;;;7.32;;
18228;SDS011;9239;50.932;3.142;2022-10-18T10:50:50;11.10;;;5.28;;
18228;SDS011;9239;50.932;3.142;2022-10-18T10:53:31;12.68;;;5.75;;
18228;SDS011;9239;50.932;3.142;2022-10-18T10:56:05;13.23;;;5.55;;
18228;SDS011;9239;50.932;3.142;2022-10-18T10:58:38;9.50;;;5.05;;
18228;SDS011;9239;50.932;3.142;2022-10-18T11:03:56;12.98;;;5.70;;
18228;SDS011;9239;50.932;3.142;2022-10-18T11:06:32;10.98;;;5.15;;
18228;SDS011;9239;50.932;3.142;2022-10-18T11:09:24;9.23;;;4.47;;
18228;SDS011;9239;50.932;3.142;2022-10-18T11:12:01;13.57;;;6.03;;
18228;SDS011;9239;50.932;3.142;2022-10-18T11:14:35;10.02;;;6.13;;
18228;SDS011;9239;50.932;3.142;2022-10-18T11:17:11;13.32;;;6.38;;
18228;SDS011;9239;50.932;3.142;2022-10-18T11:19:49;14.90;;;6.95;;
18228;SDS011;9239;50.932;3.142;2022-10-18T11:22:28;15.38;;;6.80;;
18228;SDS011;9239;50.932;3.142;2022-10-18T11:24:59;13.07;;;4.95;;
18228;SDS011;9239;50.932;3.142;2022-10-18T11:27:28;8.13;;;4.32;;
18228;SDS011;9239;50.932;3.142;2022-10-18T11:30:13;11.48;;;5.18;;
18228;SDS011;9239;50.932;3.142;2022-10-18T11:32:53;8.00;;;4.45;;
18228;SDS011;9239;50.932;3.142;2022-10-18T11:35:30;8.77;;;4.40;;
18228;SDS011;9239;50.932;3.142;2022-10-18T11:38:14;8.65;;;4.00;;
18228;SDS011;9239;50.932;3.142;2022-10-18T11:41:03;10.63;;;5.30;;
18228;SDS011;9239;50.932;3.142;2022-10-18T11:43:39;13.23;;;4.80;;
18228;SDS011;9239;50.932;3.142;2022-10-18T11:46:16;12.65;;;7.18;;
18228;SDS011;9239;50.932;3.142;2022-10-18T11:48:59;10.75;;;4.53;;
18228;SDS011;9239;50.932;3.142;2022-10-18T11:51:38;9.52;;;3.85;;
18228;SDS011;9239;50.932;3.142;2022-10-18T11:54:27;13.15;;;6.32;;
18228;SDS011;9239;50.932;3.142;2022-10-18T11:57:12;8.45;;;3.20;;
18228;SDS011;9239;50.932;3.142;2022-10-18T11:59:53;8.15;;;4.43;;
18228;SDS011;9239;50.932;3.142;2022-10-18T12:02:39;13.57;;;5.88;;
18228;SDS011;9239;50.932;3.142;2022-10-18T12:05:17;17.88;;;5.50;;
18228;SDS011;9239;50.932;3.142;2022-10-18T12:07:46;9.35;;;4.53;;
18228;SDS011;9239;50.932;3.142;2022-10-18T12:10:18;11.35;;;4.82;;
18228;SDS011;9239;50.932;3.142;2022-10-18T12:12:49;11.50;;;4.63;;
18228;SDS011;9239;50.932;3.142;2022-10-18T12:15:18;10.25;;;4.80;;
18228;SDS011;9239;50.932;3.142;2022-10-18T12:17:49;9.77;;;4.78;;
18228;SDS011;9239;50.932;3.142;2022-10-18T12:20:19;10.60;;;4.45;;
18228;SDS011;9239;50.932;3.142;2022-10-18T12:22:52;12.15;;;5.60;;
18228;SDS011;9239;50.932;3.142;2022-10-18T12:25:24;11.98;;;5.22;;
18228;SDS011;9239;50.932;3.142;2022-10-18T12:27:55;11.95;;;4.35;;
18228;SDS011;9239;50.932;3.142;2022-10-18T12:30:29;12.63;;;4.93;;
18228;SDS011;9239;50.932;3.142;2022-10-18T12:33:01;8.05;;;4.70;;
18228;SDS011;9239;50.932;3.142;2022-10-18T12:35:38;7.97;;;4.43;;
18228;SDS011;9239;50.932;3.142;2022-10-18T12:38:16;7.60;;;3.85;;
18228;SDS011;9239;50.932;3.142;2022-10-18T12:40:47;8.80;;;3.83;;
18228;SDS011;9239;50.932;3.142;2022-10-18T12:43:20;7.57;;;3.85;;
18228;SDS011;9239;50.932;3.142;2022-10-18T12:45:50;8.93;;;4.40;;
18228;SDS011;9239;50.932;3.142;2022-10-18T12:48:29;9.45;;;4.13;;
18228;SDS011;9239;50.932;3.142;2022-10-18T12:50:59;14.13;;;4.55;;
18228;SDS011;9239;50.932;3.142;2022-10-18T12:53:29;9.25;;;3.80;;
18228;SDS011;9239;50.932;3.142;2022-10-18T13:02:23;11.05;;;5.40;;
18228;SDS011;9239;50.932;3.142;2022-10-18T13:04:54;11.18;;;4.88;;
18228;SDS011;9239;50.932;3.142;2022-10-18T13:07:32;9.02;;;4.80;;
18228;SDS011;9239;50.932;3.142;2022-10-18T13:16:03;8.10;;;5.25;;
18228;SDS011;9239;50.932;3.142;2022-10-18T13:18:46;7.82;;;5.60;;
18228;SDS011;9239;50.932;3.142;2022-10-18T13:21:19;15.07;;;6.82;;
18228;SDS011;9239;50.932;3.142;2022-10-18T13:24:04;16.70;;;6.88;;
18228;SDS011;9239;50.932;3.142;2022-10-18T13:27:03;10.00;;;5.18;;
18228;SDS011;9239;50.932;3.142;2022-10-18T13:29:46;8.60;;;5.45;;
18228;SDS011;9239;50.932;3.142;2022-10-18T13:32:24;13.85;;;6.80;;
18228;SDS011;9239;50.932;3.142;2022-10-18T13:34:58;14.90;;;7.15;;
18228;SDS011;9239;50.932;3.142;2022-10-18T13:37:25;15.32;;;8.73;;
18228;SDS011;9239;50.932;3.142;2022-10-18T13:42:48;17.30;;;10.30;;
18228;SDS011;9239;50.932;3.142;2022-10-18T13:54:25;12.38;;;7.32;;
18228;SDS011;9239;50.932;3.142;2022-10-18T13:57:16;15.48;;;8.38;;
18228;SDS011;9239;50.932;3.142;2022-10-18T14:00:06;15.45;;;9.23;;
18228;SDS011;9239;50.932;3.142;2022-10-18T14:02:48;10.95;;;8.88;;
18228;SDS011;9239;50.932;3.142;2022-10-18T14:05:36;14.75;;;9.77;;
18228;SDS011;9239;50.932;3.142;2022-10-18T14:08:16;14.52;;;9.50;;
18228;SDS011;9239;50.932;3.142;2022-10-18T14:10:50;13.07;;;8.60;;
18228;SDS011;9239;50.932;3.142;2022-10-18T14:13:25;9.68;;;6.63;;
18228;SDS011;9239;50.932;3.142;2022-10-18T14:15:57;11.88;;;7.20;;
18228;SDS011;9239;50.932;3.142;2022-10-18T14:18:31;10.00;;;6.45;;
18228;SDS011;9239;50.932;3.142;2022-10-18T14:21:04;11.35;;;7.00;;
18228;SDS011;9239;50.932;3.142;2022-10-18T14:23:39;11.10;;;6.30;;
18228;SDS011;9239;50.932;3.142;2022-10-18T14:26:10;9.35;;;5.85;;
18228;SDS011;9239;50.932;3.142;2022-10-18T14:28:39;8.95;;;6.13;;
18228;SDS011;9239;50.932;3.142;2022-10-18T14:31:10;12.55;;;6.75;;
18228;SDS011;9239;50.932;3.142;2022-10-18T14:33:41;14.02;;;6.85;;
18228;SDS011;9239;50.932;3.142;2022-10-18T14:36:10;11.50;;;5.97;;
18228;SDS011;9239;50.932;3.142;2022-10-18T14:38:45;11.90;;;6.45;;
18228;SDS011;9239;50.932;3.142;2022-10-18T14:41:15;8.75;;;5.18;;
18228;SDS011;9239;50.932;3.142;2022-10-18T14:43:43;14.40;;;5.65;;
18228;SDS011;9239;50.932;3.142;2022-10-18T14:46:15;13.80;;;6.38;;
18228;SDS011;9239;50.932;3.142;2022-10-18T14:51:31;9.00;;;6.50;;
18228;SDS011;9239;50.932;3.142;2022-10-18T14:54:02;9.88;;;5.45;;
18228;SDS011;9239;50.932;3.142;2022-10-18T14:56:30;10.57;;;5.47;;
18228;SDS011;9239;50.932;3.142;2022-10-18T14:58:59;10.70;;;6.10;;
18228;SDS011;9239;50.932;3.142;2022-10-18T15:01:29;14.60;;;5.93;;
18228;SDS011;9239;50.932;3.142;2022-10-18T15:03:57;12.00;;;6.55;;
18228;SDS011;9239;50.932;3.142;2022-10-18T15:06:25;12.32;;;5.90;;
18228;SDS011;9239;50.932;3.142;2022-10-18T15:08:54;11.48;;;6.60;;
18228;SDS011;9239;50.932;3.142;2022-10-18T15:11:24;11.00;;;6.70;;
18228;SDS011;9239;50.932;3.142;2022-10-18T15:13:53;10.55;;;7.20;;
18228;SDS011;9239;50.932;3.142;2022-10-18T15:16:22;12.73;;;7.95;;
18228;SDS011;9239;50.932;3.142;2022-10-18T15:18:57;10.02;;;7.07;;
18228;SDS011;9239;50.932;3.142;2022-10-18T15:21:29;10.98;;;7.40;;
18228;SDS011;9239;50.932;3.142;2022-10-18T15:26:46;9.63;;;5.47;;
18228;SDS011;9239;50.932;3.142;2022-10-18T15:29:15;11.93;;;5.38;;
18228;SDS011;9239;50.932;3.142;2022-10-18T15:31:43;12.48;;;5.75;;
18228;SDS011;9239;50.932;3.142;2022-10-18T15:34:14;9.88;;;5.30;;
18228;SDS011;9239;50.932;3.142;2022-10-18T15:36:44;8.10;;;4.90;;
18228;SDS011;9239;50.932;3.142;2022-10-18T15:39:13;8.68;;;4.75;;
18228;SDS011;9239;50.932;3.142;2022-10-18T15:41:43;11.38;;;5.10;;